Time;durP1;ratioP1;P1;durP2;ratioP2;P2;SDS_P1;SDS_P2;PMS_P1;PMS_P2;Temp;Humidity;BMP_temperature;BMP_pressure;BME280_temperature;BME280_humidity;BME280_pressure;Samples;Min_cycle;Max_cycle;Signal;HPM_P1;HPM_P2
2021/06/07 00:02:10;;;;;;;0.95;0.80;;;23.30;47.50;;;;;;6327329;28;20028;-65
2021/06/07 00:05:11;;;;;;;1.13;0.80;;;23.30;47.50;;;;;;6346040;28;20016;-67
2021/06/07 00:08:16;;;;;;;1.00;0.82;;;23.30;47.70;;;;;;6344623;28;20053;-66
2021/06/07 00:11:17;;;;;;;0.90;0.63;;;23.30;47.70;;;;;;6344484;28;20084;-68
2021/06/07 00:14:28;;;;;;;0.90;0.70;;;23.30;47.80;;;;;;6345422;28;20073;-69
2021/06/07 00:17:29;;;;;;;0.90;0.77;;;23.30;47.80;;;;;;6340347;28;20039;-69
2021/06/07 00:20:34;;;;;;;1.05;0.77;;;23.30;47.90;;;;;;6322364;28;20020;-71
2021/06/07 00:23:34;;;;;;;;;;;23.30;47.90;;;;;;6326593;28;20512;-68
2021/06/07 00:26:35;;;;;;;1.40;0.90;;;23.30;47.90;;;;;;6343920;28;19915;-70
2021/06/07 00:29:36;;;;;;;0.77;0.65;;;23.20;47.90;;;;;;6343838;28;20019;-69
2021/06/07 00:32:36;;;;;;;1.08;0.90;;;23.30;48.00;;;;;;6343624;28;20024;-69
2021/06/07 00:35:37;;;;;;;1.10;0.85;;;23.30;48.10;;;;;;6343666;28;20030;-69
2021/06/07 00:38:39;;;;;;;0.95;0.68;;;23.20;48.00;;;;;;6334618;28;20072;-70
2021/06/07 00:41:42;;;;;;;0.70;0.60;;;23.20;48.00;;;;;;6325268;28;20027;-69
2021/06/07 00:44:42;;;;;;;0.88;0.75;;;23.20;48.10;;;;;;6343402;28;20031;-69
2021/06/07 00:47:43;;;;;;;1.50;0.98;;;23.20;48.10;;;;;;6325079;28;20019;-69
2021/06/07 00:50:53;;;;;;;0.60;0.60;;;23.20;48.10;;;;;;6343120;28;20020;-69
2021/06/07 00:53:54;;;;;;;1.17;0.70;;;23.20;48.20;;;;;;6324632;28;20024;-70
2021/06/07 00:56:55;;;;;;;0.70;0.70;;;23.20;48.20;;;;;;6331859;28;20044;-70
2021/06/07 00:59:55;;;;;;;1.20;0.70;;;23.20;48.20;;;;;;6317767;28;20089;-69
2021/06/07 01:02:57;;;;;;;0.85;0.68;;;23.20;48.20;;;;;;6317585;28;20024;-69
2021/06/07 01:05:58;;;;;;;0.73;0.70;;;23.20;48.30;;;;;;6333474;28;20016;-70
2021/06/07 01:08:59;;;;;;;1.05;0.70;;;23.20;48.30;;;;;;6318318;28;20070;-69
2021/06/07 01:11:59;;;;;;;1.00;0.80;;;23.20;48.30;;;;;;6317191;28;20023;-69
2021/06/07 01:15:01;;;;;;;0.85;0.63;;;23.20;48.40;;;;;;6314172;28;20147;-69
2021/06/07 01:18:02;;;;;;;0.75;0.50;;;23.20;49.10;;;;;;6327929;28;20047;-69
2021/06/07 01:21:12;;;;;;;0.63;0.50;;;23.20;48.40;;;;;;6322476;28;20031;-69
2021/06/07 01:24:12;;;;;;;1.20;0.93;;;23.20;48.40;;;;;;6342155;28;20020;-69
2021/06/07 01:27:13;;;;;;;0.68;0.68;;;23.20;48.50;;;;;;6327319;28;20024;-69
2021/06/07 01:30:17;;;;;;;1.00;0.73;;;23.20;48.50;;;;;;6325282;28;20063;-70
2021/06/07 01:33:21;;;;;;;1.10;0.80;;;23.20;48.50;;;;;;6322975;28;20121;-70
2021/06/07 01:36:23;;;;;;;0.80;0.60;;;23.20;49.20;;;;;;6312177;28;20059;-69
2021/06/07 01:39:27;;;;;;;0.80;0.60;;;23.20;48.60;;;;;;6311968;28;20118;-69
2021/06/07 01:42:28;;;;;;;1.10;1.00;;;23.20;48.60;;;;;;6312482;28;20036;-68
2021/06/07 01:45:29;;;;;;;0.70;0.60;;;23.20;48.60;;;;;;6305949;28;20019;-69
2021/06/07 01:48:30;;;;;;;0.82;0.77;;;23.20;48.70;;;;;;6305074;28;20493;-68
2021/06/07 01:51:31;;;;;;;0.98;0.70;;;23.20;48.70;;;;;;6336473;28;20028;-68
2021/06/07 01:54:32;;;;;;;0.75;0.65;;;23.20;48.70;;;;;;6324296;28;20035;-71
2021/06/07 01:57:32;;;;;;;0.57;0.57;;;23.20;48.70;;;;;;6328606;28;20024;-69
2021/06/07 02:00:38;;;;;;;0.90;0.60;;;23.20;48.70;;;;;;6329343;28;20027;-69
2021/06/07 02:03:39;;;;;;;1.60;0.70;;;23.20;48.70;;;;;;6336829;28;20024;-69
2021/06/07 02:06:40;;;;;;;1.38;0.85;;;23.20;48.80;;;;;;6327842;28;20023;-70
2021/06/07 02:09:41;;;;;;;0.60;0.60;;;23.20;48.80;;;;;;6317902;28;20103;-70
2021/06/07 02:12:42;;;;;;;0.93;0.68;;;23.20;48.80;;;;;;6340887;28;20024;-69
2021/06/07 02:15:51;;;;;;;0.80;0.80;;;23.20;48.90;;;;;;6316228;28;20473;-69
2021/06/07 02:18:53;;;;;;;0.85;0.70;;;23.20;48.80;;;;;;6316435;28;20028;-71
2021/06/07 02:21:53;;;;;;;0.68;0.68;;;23.20;48.90;;;;;;6316066;28;20488;-68
2021/06/07 02:24:54;;;;;;;0.93;0.70;;;23.20;48.90;;;;;;6332070;28;20073;-69
2021/06/07 02:27:55;;;;;;;0.60;0.60;;;23.20;48.90;;;;;;6325086;28;20047;-69
2021/06/07 02:30:57;;;;;;;0.50;0.50;;;23.20;48.90;;;;;;6332402;28;20447;-70
2021/06/07 02:34:00;;;;;;;0.60;0.50;;;23.20;48.90;;;;;;6291013;28;20036;-70
2021/06/07 02:37:01;;;;;;;0.88;0.60;;;23.20;49.00;;;;;;6307343;28;20115;-69
2021/06/07 02:40:05;;;;;;;0.50;0.50;;;23.20;49.00;;;;;;6315858;28;20484;-69
2021/06/07 02:43:07;;;;;;;0.98;0.82;;;23.20;49.00;;;;;;6314588;28;20034;-70
2021/06/07 02:46:09;;;;;;;0.60;0.60;;;23.20;49.00;;;;;;6324136;28;20111;-70
2021/06/07 02:49:10;;;;;;;1.05;0.52;;;23.20;49.00;;;;;;6329274;28;20023;-69
2021/06/07 02:52:11;;;;;;;0.93;0.80;;;23.20;49.10;;;;;;6315219;28;20507;-70
2021/06/07 02:55:11;;;;;;;0.85;0.65;;;23.20;49.10;;;;;;6306838;28;20055;-70
2021/06/07 02:58:12;;;;;;;1.85;0.70;;;23.20;49.10;;;;;;6317717;28;20028;-69
2021/06/07 03:01:13;;;;;;;0.50;0.50;;;23.20;49.10;;;;;;6336516;28;20032;-69
2021/06/07 03:04:14;;;;;;;1.05;0.70;;;23.20;49.10;;;;;;6322196;28;20484;-70
2021/06/07 03:07:15;;;;;;;1.23;0.50;;;23.20;49.10;;;;;;6340585;28;20023;-70
2021/06/07 03:10:15;;;;;;;0.70;0.70;;;23.20;49.20;;;;;;6340298;28;20109;-69
2021/06/07 03:13:17;;;;;;;0.85;0.68;;;23.20;49.20;;;;;;6340355;28;20062;-69
2021/06/07 03:16:18;;;;;;;0.85;0.60;;;23.20;49.20;;;;;;6340125;28;20077;-69
2021/06/07 03:19:19;;;;;;;0.60;0.60;;;23.20;49.20;;;;;;6340880;28;20016;-68
2021/06/07 03:22:21;;;;;;;0.63;0.63;;;23.20;49.20;;;;;;6336730;28;20035;-70
2021/06/07 03:25:23;;;;;;;0.63;0.60;;;23.20;49.20;;;;;;6345367;28;20024;-69
2021/06/07 03:28:23;;;;;;;0.63;0.63;;;23.20;49.20;;;;;;6345139;28;20020;-69
2021/06/07 03:31:24;;;;;;;0.82;0.70;;;23.20;49.30;;;;;;6345436;28;20362;-68
2021/06/07 03:34:25;;;;;;;0.65;0.60;;;23.20;49.30;;;;;;6344890;28;20019;-71
2021/06/07 03:37:26;;;;;;;0.50;0.50;;;23.20;49.30;;;;;;6344878;28;20035;-69
2021/06/07 03:40:30;;;;;;;2.65;0.85;;;23.20;50.00;;;;;;6321400;28;20062;-69
2021/06/07 03:43:33;;;;;;;0.60;0.60;;;23.20;49.30;;;;;;6328472;28;20023;-66
2021/06/07 03:46:34;;;;;;;0.70;0.60;;;23.20;49.30;;;;;;6340055;28;20024;-66
2021/06/07 03:49:35;;;;;;;0.77;0.60;;;23.20;49.40;;;;;;6343743;28;20444;-66
2021/06/07 03:52:36;;;;;;;1.75;0.65;;;23.10;49.30;;;;;;6342595;28;20027;-65
2021/06/07 03:55:39;;;;;;;0.68;0.60;;;23.10;49.30;;;;;;6343732;28;20043;-65
2021/06/07 03:58:40;;;;;;;0.90;0.70;;;23.10;49.30;;;;;;6341663;28;20061;-65
2021/06/07 04:01:42;;;;;;;0.70;0.70;;;23.20;49.50;;;;;;6343928;28;20935;-65
2021/06/07 04:04:42;;;;;;;0.50;0.50;;;23.20;49.40;;;;;;6343888;28;20031;-66
2021/06/07 04:07:43;;;;;;;0.85;0.70;;;23.20;49.50;;;;;;6325517;28;20484;-65
2021/06/07 04:10:46;;;;;;;0.60;0.60;;;23.20;49.50;;;;;;6342960;28;20042;-65
2021/06/07 04:13:47;;;;;;;0.70;0.50;;;23.20;49.50;;;;;;6342880;28;20020;-66
2021/06/07 04:16:47;;;;;;;1.45;0.60;;;23.20;49.50;;;;;;6343281;28;20027;-66
2021/06/07 04:19:48;;;;;;;0.43;0.43;;;23.10;49.40;;;;;;6343254;28;20091;-65
2021/06/07 04:22:49;;;;;;;0.73;0.60;;;23.10;49.50;;;;;;6343090;28;20073;-66
2021/06/07 04:25:50;;;;;;;1.23;0.80;;;23.20;49.60;;;;;;6342636;28;20035;-65
2021/06/07 04:28:50;;;;;;;0.50;0.50;;;23.10;49.50;;;;;;6342621;28;20023;-65
2021/06/07 04:31:51;;;;;;;0.68;0.60;;;23.10;49.50;;;;;;6342659;28;20107;-65
2021/06/07 04:34:52;;;;;;;0.60;0.50;;;23.10;49.60;;;;;;6342920;28;20038;-65
2021/06/07 04:37:54;;;;;;;1.02;0.70;;;23.10;49.60;;;;;;6343527;28;20020;-66
2021/06/07 04:40:55;;;;;;;0.80;0.75;;;23.10;49.50;;;;;;6343295;28;20118;-66
2021/06/07 04:43:55;;;;;;;0.50;0.50;;;23.10;49.60;;;;;;6343047;28;20046;-65
2021/06/07 04:46:56;;;;;;;0.93;0.68;;;23.10;49.60;;;;;;6342705;28;20027;-66
2021/06/07 04:49:58;;;;;;;0.68;0.57;;;23.10;49.60;;;;;;6342089;28;20067;-66
2021/06/07 04:53:00;;;;;;;0.70;0.50;;;23.10;49.60;;;;;;6323804;28;20031;-65
2021/06/07 04:56:01;;;;;;;0.80;0.65;;;23.10;49.60;;;;;;6341979;28;20047;-66
2021/06/07 04:59:02;;;;;;;0.50;0.50;;;23.10;49.70;;;;;;6342295;28;20587;-65
2021/06/07 05:02:03;;;;;;;0.60;0.60;;;23.10;49.60;;;;;;6341721;28;20447;-66
2021/06/07 05:05:04;;;;;;;0.50;0.50;;;23.10;49.70;;;;;;6342195;28;20019;-66
2021/06/07 05:08:06;;;;;;;0.45;0.40;;;23.10;49.70;;;;;;6342394;28;20081;-66
2021/06/07 05:11:07;;;;;;;0.60;0.60;;;23.10;49.70;;;;;;6341399;28;20015;-66
2021/06/07 05:14:08;;;;;;;0.50;0.50;;;23.10;49.70;;;;;;6341717;28;20042;-66
2021/06/07 05:17:09;;;;;;;0.77;0.55;;;23.10;49.70;;;;;;6323622;28;20039;-65
2021/06/07 05:20:16;;;;;;;0.70;0.60;;;23.10;49.70;;;;;;6319733;28;20032;-65
2021/06/07 05:23:17;;;;;;;0.65;0.65;;;23.10;49.70;;;;;;6341455;28;20100;-65
2021/06/07 05:26:17;;;;;;;0.70;0.70;;;23.10;49.70;;;;;;6341683;28;20032;-65
2021/06/07 05:29:19;;;;;;;0.88;0.65;;;23.10;49.70;;;;;;6341441;28;20102;-65
2021/06/07 05:32:19;;;;;;;0.65;0.60;;;23.10;49.70;;;;;;6341889;28;20041;-65
2021/06/07 05:35:23;;;;;;;0.50;0.50;;;23.10;49.80;;;;;;6341609;28;20027;-65
2021/06/07 05:38:23;;;;;;;0.65;0.60;;;23.10;49.80;;;;;;6320681;28;20697;-66
2021/06/07 05:41:24;;;;;;;0.75;0.60;;;23.10;49.80;;;;;;6336895;28;20107;-65
2021/06/07 05:44:25;;;;;;;0.70;0.52;;;23.10;50.60;;;;;;6340884;28;20024;-66
2021/06/07 05:47:25;;;;;;;0.40;0.40;;;23.10;49.80;;;;;;6314631;27;20022;-70
2021/06/07 05:50:31;;;;;;;0.50;0.50;;;23.10;49.80;;;;;;6334725;27;20473;-66
2021/06/07 05:53:31;;;;;;;1.52;0.77;;;23.10;49.80;;;;;;6338149;28;20020;-67
2021/06/07 05:56:32;;;;;;;1.48;1.05;;;23.10;49.70;;;;;;6333625;28;20050;-67
2021/06/07 05:59:36;;;;;;;9.10;1.42;;;23.00;49.00;;;;;;6318402;28;20210;-67
2021/06/07 06:02:36;;;;;;;4.75;2.15;;;23.00;48.00;;;;;;6343689;28;20023;-67
2021/06/07 06:05:38;;;;;;;8.85;2.22;;;23.00;47.40;;;;;;6334982;28;20027;-73
2021/06/07 06:08:39;;;;;;;14.32;2.72;;;23.00;45.10;;;;;;6332396;28;20023;-68
2021/06/07 06:11:41;;;;;;;6.78;2.13;;;23.10;45.30;;;;;;6339833;28;20528;-67
2021/06/07 06:14:41;;;;;;;5.45;2.40;;;23.00;46.00;;;;;;6341207;28;20030;-68
2021/06/07 06:17:42;;;;;;;7.97;2.50;;;23.00;45.60;;;;;;6322920;28;20023;-68
2021/06/07 06:20:43;;;;;;;8.13;2.50;;;23.00;45.40;;;;;;6334559;28;20027;-68
2021/06/07 06:23:44;;;;;;;4.38;1.85;;;23.00;46.00;;;;;;6321807;28;20035;-68
2021/06/07 06:26:45;;;;;;;6.25;2.00;;;23.00;46.10;;;;;;6340557;28;20027;-68
2021/06/07 06:29:47;;;;;;;12.05;2.60;;;23.00;46.00;;;;;;6321946;28;20125;-68
2021/06/07 06:32:52;;;;;;;5.40;2.40;;;23.00;46.10;;;;;;6340551;28;20097;-68
2021/06/07 06:35:54;;;;;;;;;;;23.00;45.80;;;;;;6325850;28;20069;-68
2021/06/07 06:38:54;;;;;;;8.77;2.83;;;23.00;45.60;;;;;;6340747;28;19908;-69
2021/06/07 06:41:55;;;;;;;4.63;2.60;;;23.00;44.20;;;;;;6332441;28;20157;-68
2021/06/07 06:44:55;;;;;;;6.45;2.60;;;23.00;45.00;;;;;;6320864;28;20381;-68
2021/06/07 06:47:58;;;;;;;5.30;2.85;;;22.90;44.10;;;;;;6335025;28;20016;-68
2021/06/07 06:51:00;;;;;;;7.38;2.58;;;22.90;43.30;;;;;;6334933;28;20123;-68
2021/06/07 06:54:01;;;;;;;7.28;2.50;;;22.90;44.30;;;;;;6324151;28;20613;-68
2021/06/07 06:57:03;;;;;;;8.43;2.47;;;22.90;43.50;;;;;;6344616;28;20051;-67
2021/06/07 07:00:06;;;;;;;8.93;2.30;;;23.00;43.80;;;;;;6326404;28;20122;-67
2021/06/07 07:03:10;;;;;;;11.77;2.65;;;23.00;43.30;;;;;;6342577;28;20503;-65
2021/06/07 07:06:11;;;;;;;6.55;2.20;;;23.00;43.10;;;;;;6346173;27;20662;-65
2021/06/07 07:09:12;;;;;;;4.70;2.08;;;23.00;44.80;;;;;;6351808;27;20043;-64
2021/06/07 07:12:13;;;;;;;4.35;2.60;;;23.00;45.60;;;;;;6326320;28;20034;-65
2021/06/07 07:15:13;;;;;;;7.22;2.28;;;23.00;45.40;;;;;;6340646;28;20102;-64
2021/06/07 07:18:14;;;;;;;6.68;2.22;;;23.00;45.80;;;;;;6327204;28;20028;-64
2021/06/07 07:21:15;;;;;;;5.18;2.30;;;23.00;46.20;;;;;;6346403;28;20119;-64
2021/06/07 07:24:15;;;;;;;2.30;1.73;;;23.00;46.50;;;;;;6340036;28;20059;-64
2021/06/07 07:27:19;;;;;;;5.03;2.10;;;23.10;46.90;;;;;;6345009;28;20121;-64
2021/06/07 07:30:22;;;;;;;4.50;1.65;;;23.00;47.00;;;;;;6345306;28;20024;-64
2021/06/07 07:33:23;;;;;;;3.10;1.75;;;23.00;47.20;;;;;;6345089;28;20558;-64
2021/06/07 07:36:24;;;;;;;4.68;1.88;;;23.00;47.40;;;;;;6344059;28;20026;-64
2021/06/07 07:39:24;;;;;;;4.53;1.63;;;23.00;47.50;;;;;;6345285;28;20023;-64
2021/06/07 07:42:25;;;;;;;3.22;2.00;;;23.00;47.60;;;;;;6344229;28;20228;-64
2021/06/07 07:45:28;;;;;;;3.03;1.92;;;23.00;47.80;;;;;;6345099;28;20019;-64
2021/06/07 07:48:28;;;;;;;2.50;1.77;;;23.00;47.80;;;;;;6338867;28;20078;-64
2021/06/07 07:51:30;;;;;;;2.28;1.42;;;23.00;47.90;;;;;;6344661;28;20020;-64
2021/06/07 07:54:31;;;;;;;3.05;1.60;;;23.00;48.00;;;;;;6346160;28;20531;-64
2021/06/07 07:57:32;;;;;;;2.25;1.70;;;23.00;48.00;;;;;;6339332;28;20090;-64
2021/06/07 08:00:33;;;;;;;2.67;1.80;;;23.00;48.10;;;;;;6340919;28;20499;-64
2021/06/07 08:03:34;;;;;;;2.97;1.73;;;23.00;48.20;;;;;;6346984;27;20547;-64
2021/06/07 08:06:35;;;;;;;1.92;1.50;;;23.00;48.30;;;;;;6343974;28;20030;-64
2021/06/07 08:09:36;;;;;;;1.98;1.63;;;23.00;48.40;;;;;;6344037;28;20440;-65
2021/06/07 08:12:38;;;;;;;2.97;1.83;;;23.00;48.40;;;;;;6343328;28;20024;-65
2021/06/07 08:15:38;;;;;;;3.75;1.80;;;23.00;48.50;;;;;;6344364;28;20059;-64
2021/06/07 08:18:40;;;;;;;2.75;1.50;;;23.00;48.50;;;;;;6344188;28;20031;-64
2021/06/07 08:21:40;;;;;;;2.22;1.63;;;23.00;48.50;;;;;;6344092;28;20047;-68
2021/06/07 08:24:41;;;;;;;1.55;1.25;;;23.00;48.60;;;;;;6324390;28;20028;-67
2021/06/07 08:27:41;;;;;;;1.52;1.40;;;23.00;48.60;;;;;;6344580;28;20035;-67
2021/06/07 08:30:42;;;;;;;1.30;1.20;;;23.00;48.70;;;;;;6342811;28;20518;-67
2021/06/07 08:33:43;;;;;;;1.70;1.42;;;23.00;48.70;;;;;;6325694;28;20024;-68
2021/06/07 08:36:44;;;;;;;1.48;1.20;;;23.00;48.80;;;;;;6342974;28;20031;-68
2021/06/07 08:39:45;;;;;;;1.55;1.30;;;23.00;48.80;;;;;;6325581;28;20108;-67
2021/06/07 08:42:46;;;;;;;1.70;1.20;;;23.00;48.80;;;;;;6343177;28;20061;-67
2021/06/07 08:45:47;;;;;;;2.72;1.35;;;23.00;48.90;;;;;;6343279;28;20424;-67
2021/06/07 08:48:48;;;;;;;2.13;1.35;;;23.00;49.00;;;;;;6332786;28;20012;-67
2021/06/07 08:51:50;;;;;;;1.15;1.05;;;23.00;49.00;;;;;;6341087;28;20031;-67
2021/06/07 08:54:51;;;;;;;1.42;1.30;;;23.00;49.00;;;;;;6322847;28;20471;-67
2021/06/07 08:57:54;;;;;;;2.00;1.50;;;23.00;49.00;;;;;;6336547;28;20086;-67
2021/06/07 09:00:54;;;;;;;2.28;1.40;;;23.00;49.00;;;;;;6331123;28;20538;-67
2021/06/07 09:04:10;;;;;;;1.35;1.10;;;23.00;49.10;;;;;;6341938;28;20020;-67
2021/06/07 09:07:10;;;;;;;;;;;23.00;49.10;;;;;;6309044;28;20477;-67
2021/06/07 09:10:13;;;;;;;1.40;1.20;;;23.00;49.10;;;;;;6337989;28;20104;-66
2021/06/07 09:13:17;;;;;;;1.35;1.13;;;23.00;49.20;;;;;;6341563;28;20031;-67
2021/06/07 09:16:18;;;;;;;1.67;1.35;;;23.00;49.20;;;;;;6333485;28;20024;-67
2021/06/07 09:19:22;;;;;;;1.80;0.95;;;23.00;49.30;;;;;;6322565;28;20036;-67
2021/06/07 09:22:31;;;;;;;1.40;1.25;;;23.10;49.30;;;;;;6341478;28;20027;-71
2021/06/07 09:25:36;;;;;;;4.40;1.20;;;23.10;49.30;;;;;;6321683;28;20025;-70
2021/06/07 09:28:39;;;;;;;1.63;1.13;;;23.10;49.30;;;;;;6323532;28;20430;-69
2021/06/07 09:31:45;;;;;;;1.38;1.20;;;23.10;49.40;;;;;;6341410;28;20027;-69
2021/06/07 09:34:46;;;;;;;1.40;0.95;;;23.10;49.40;;;;;;6345082;27;20103;-70
2021/06/07 09:38:07;;;;;;;1.40;1.20;;;23.10;49.40;;;;;;6340784;28;20027;-69
2021/06/07 09:41:09;;;;;;;2.13;1.10;;;23.10;49.50;;;;;;6340759;28;20054;-66
2021/06/07 09:44:17;;;;;;;2.95;1.58;;;23.10;49.00;;;;;;6337846;28;20028;-67
2021/06/07 09:47:22;;;;;;;2.03;1.48;;;23.10;48.80;;;;;;6355932;27;20023;-66
2021/06/07 09:50:23;;;;;;;2.70;1.60;;;23.10;48.80;;;;;;6339496;28;20024;-68
2021/06/07 09:53:55;;;;;;;3.78;1.58;;;23.10;48.50;;;;;;6341194;28;20357;-67
2021/06/07 09:57:01;;;;;;;4.00;1.70;;;23.10;48.30;;;;;;6333013;28;20109;-67
2021/06/07 10:00:03;;;;;;;3.45;1.70;;;23.10;48.30;;;;;;6337881;28;20027;-68
2021/06/07 10:03:44;;;;;;;4.85;1.80;;;23.10;48.50;;;;;;6321665;28;20250;-68
2021/06/07 10:06:44;;;;;;;4.05;1.58;;;23.10;47.70;;;;;;6265285;28;20025;-66
2021/06/07 10:10:08;;;;;;;2.95;1.63;;;23.10;47.90;;;;;;6276718;28;20100;-71
2021/06/07 10:13:11;;;;;;;2.75;1.63;;;23.10;48.20;;;;;;6340968;28;20112;-67
2021/06/07 10:16:12;;;;;;;2.90;1.60;;;23.10;48.40;;;;;;6339244;28;20039;-66
2021/06/07 10:19:18;;;;;;;2.50;1.70;;;23.10;48.20;;;;;;6339486;28;20328;-66
2021/06/07 10:22:19;;;;;;;3.25;1.55;;;23.10;48.50;;;;;;6340325;28;20031;-67
2021/06/07 10:25:19;;;;;;;3.22;1.73;;;23.10;48.30;;;;;;6340151;28;20027;-67
2021/06/07 10:28:33;;;;;;;4.13;1.45;;;23.10;48.30;;;;;;6320796;28;20525;-66
2021/06/07 10:31:38;;;;;;;2.80;1.60;;;23.10;48.50;;;;;;6339143;28;20409;-69
2021/06/07 10:34:57;;;;;;;2.85;1.52;;;23.10;48.20;;;;;;6340724;28;20065;-71
2021/06/07 10:38:08;;;;;;;2.50;1.88;;;23.10;48.30;;;;;;6321422;28;20039;-69
2021/06/07 10:41:23;;;;;;;3.00;1.40;;;23.10;48.20;;;;;;6339710;27;20116;-69
2021/06/07 10:44:38;;;;;;;3.28;1.60;;;23.10;48.60;;;;;;6347567;27;20041;-69
2021/06/07 10:47:45;;;;;;;3.42;1.60;;;23.10;48.60;;;;;;6341224;27;20024;-69
2021/06/07 10:50:46;;;;;;;1.88;1.30;;;23.10;48.60;;;;;;6340072;28;20020;-70
2021/06/07 10:53:46;;;;;;;1.83;1.33;;;23.10;48.70;;;;;;6340524;28;20029;-69
2021/06/07 10:56:47;;;;;;;1.38;1.23;;;23.10;48.70;;;;;;6339373;28;20651;-69
2021/06/07 10:59:51;;;;;;;1.80;1.27;;;23.10;48.70;;;;;;6338952;28;20051;-69
2021/06/07 11:02:55;;;;;;;1.95;1.15;;;23.10;48.80;;;;;;6338992;28;20036;-69
2021/06/07 11:05:58;;;;;;;4.97;1.40;;;23.10;48.80;;;;;;6344778;28;20110;-70
2021/06/07 11:09:09;;;;;;;2.50;1.60;;;23.10;48.80;;;;;;6365268;28;20023;-70
2021/06/07 11:12:11;;;;;;;2.55;1.33;;;23.10;48.90;;;;;;6345264;28;20110;-69
2021/06/07 11:15:14;;;;;;;2.85;1.42;;;23.10;49.00;;;;;;6340313;28;20237;-69
2021/06/07 11:18:30;;;;;;;1.60;1.23;;;23.10;48.90;;;;;;6338549;28;20028;-71
2021/06/07 11:21:36;;;;;;;1.75;1.23;;;23.10;49.00;;;;;;6344279;28;20500;-70
2021/06/07 11:24:38;;;;;;;1.15;1.05;;;23.10;49.10;;;;;;6321481;28;20104;-69
2021/06/07 11:27:40;;;;;;;1.65;1.27;;;23.00;49.10;;;;;;6338943;28;20484;-69
2021/06/07 11:30:41;;;;;;;1.35;1.08;;;23.00;49.10;;;;;;6338050;28;20012;-70
2021/06/07 11:33:56;;;;;;;1.88;1.10;;;23.00;49.10;;;;;;6320877;28;20031;-69
2021/06/07 11:37:00;;;;;;;1.13;1.02;;;23.00;49.10;;;;;;6339030;28;20508;-69
2021/06/07 11:40:05;;;;;;;1.98;1.20;;;23.10;49.30;;;;;;6320840;28;20485;-70
2021/06/07 11:43:06;;;;;;;1.20;1.02;;;23.00;49.20;;;;;;6320602;28;20031;-70
2021/06/07 11:46:06;;;;;;;2.65;1.30;;;23.10;49.30;;;;;;6333098;28;20313;-70
2021/06/07 11:49:12;;;;;;;1.10;1.00;;;23.10;49.30;;;;;;6341561;28;20055;-69
2021/06/07 11:52:13;;;;;;;2.85;1.40;;;23.00;49.30;;;;;;6343655;28;20488;-69
2021/06/07 11:55:21;;;;;;;1.75;1.20;;;23.00;49.30;;;;;;6324986;28;20067;-72
2021/06/07 11:58:23;;;;;;;1.60;1.20;;;23.00;49.30;;;;;;6330542;28;20129;-72
2021/06/07 12:01:24;;;;;;;1.30;1.10;;;23.00;49.40;;;;;;6365359;27;20031;-69
2021/06/07 12:04:33;;;;;;;1.90;1.38;;;23.10;49.40;;;;;;6369151;27;20048;-68
2021/06/07 12:07:35;;;;;;;1.50;1.20;;;23.00;49.40;;;;;;6340912;27;20029;-68
2021/06/07 12:10:37;;;;;;;1.80;1.15;;;23.00;49.40;;;;;;6346911;27;20086;-71
2021/06/07 12:13:44;;;;;;;1.35;1.23;;;23.00;49.40;;;;;;6342467;28;20027;-69
2021/06/07 12:16:45;;;;;;;1.90;1.30;;;23.00;49.50;;;;;;6326878;28;20336;-73
2021/06/07 12:19:57;;;;;;;1.00;0.90;;;23.00;49.50;;;;;;6325480;28;20175;-70
2021/06/07 12:23:02;;;;;;;1.52;1.02;;;23.10;49.60;;;;;;6344002;28;20110;-74
2021/06/07 12:29:47;;;;;;;0.80;0.80;;;23.00;49.50;;;;;;6340319;28;20035;-69
2021/06/07 12:32:49;;;;;;;2.47;1.38;;;23.00;49.60;;;;;;6343440;28;20074;-67
2021/06/07 12:35:53;;;;;;;1.60;1.17;;;23.00;49.60;;;;;;6343063;28;20015;-70
2021/06/07 12:38:53;;;;;;;1.60;1.23;;;23.00;49.50;;;;;;6343448;28;20019;-67
2021/06/07 12:41:54;;;;;;;2.13;1.27;;;23.00;49.60;;;;;;6342886;28;20347;-69
2021/06/07 12:45:04;;;;;;;1.38;1.08;;;23.00;49.60;;;;;;6322880;28;20020;-68
2021/06/07 12:48:22;;;;;;;1.33;1.23;;;23.00;49.60;;;;;;6339264;28;20023;-68
2021/06/07 12:51:24;;;;;;;2.17;1.27;;;23.00;49.60;;;;;;6325650;27;20499;-67
2021/06/07 12:54:27;;;;;;;1.13;1.00;;;23.00;49.60;;;;;;6340513;28;20051;-69
2021/06/07 12:57:30;;;;;;;1.42;1.13;;;23.00;49.60;;;;;;6342318;28;20043;-67
2021/06/07 13:00:35;;;;;;;3.38;1.10;;;23.00;49.60;;;;;;6343206;28;20093;-68
2021/06/07 13:03:37;;;;;;;2.00;1.10;;;23.00;49.60;;;;;;6345361;27;20075;-67
2021/06/07 13:06:49;;;;;;;1.58;0.93;;;23.00;49.70;;;;;;6358891;27;20030;-68
2021/06/07 13:09:51;;;;;;;1.17;0.85;;;23.00;49.70;;;;;;6331369;28;20027;-68
2021/06/07 13:12:56;;;;;;;1.05;0.95;;;23.00;49.70;;;;;;6339472;27;20058;-68
2021/06/07 13:16:01;;;;;;;1.30;0.90;;;23.00;49.70;;;;;;6323939;28;20055;-67
2021/06/07 13:19:12;;;;;;;1.40;0.90;;;23.00;49.70;;;;;;6341786;28;20028;-67
2021/06/07 13:22:16;;;;;;;1.50;1.08;;;23.00;49.70;;;;;;6341142;28;20492;-67
2021/06/07 13:25:17;;;;;;;1.52;1.02;;;23.10;49.80;;;;;;6323921;28;20020;-67
2021/06/07 13:28:21;;;;;;;1.63;1.13;;;23.10;49.80;;;;;;6341613;28;20031;-68
2021/06/07 13:31:22;;;;;;;1.10;1.00;;;23.00;49.70;;;;;;6341398;28;20020;-68
2021/06/07 13:34:29;;;;;;;0.88;0.88;;;23.00;49.80;;;;;;6322518;28;20043;-67
2021/06/07 13:37:42;;;;;;;2.92;1.05;;;23.00;49.80;;;;;;6333050;28;20131;-63
2021/06/07 13:40:43;;;;;;;1.13;0.93;;;23.00;49.80;;;;;;6341504;28;20030;-63
2021/06/07 13:43:43;;;;;;;2.08;0.85;;;23.00;49.80;;;;;;6337838;28;20035;-63
2021/06/07 13:46:44;;;;;;;1.65;0.95;;;23.10;49.80;;;;;;6340343;28;20401;-68
2021/06/07 13:49:45;;;;;;;1.50;1.30;;;23.00;49.80;;;;;;6340958;28;20070;-67
2021/06/07 13:52:55;;;;;;;1.48;1.02;;;23.00;49.80;;;;;;6341960;28;20024;-65
2021/06/07 13:55:56;;;;;;;1.08;0.90;;;23.10;49.90;;;;;;6340937;28;20040;-65
2021/06/07 13:58:57;;;;;;;1.00;0.90;;;23.00;49.80;;;;;;6339510;28;20152;-64
2021/06/07 14:01:58;;;;;;;1.33;1.15;;;23.00;49.80;;;;;;6340787;28;20486;-64
2021/06/07 14:04:59;;;;;;;1.45;1.05;;;23.00;49.90;;;;;;6339026;28;20379;-64
2021/06/07 14:07:59;;;;;;;1.70;1.00;;;23.00;49.80;;;;;;6340239;28;20028;-64
2021/06/07 14:11:11;;;;;;;1.38;1.08;;;23.00;49.90;;;;;;6338376;28;20024;-64
2021/06/07 14:14:14;;;;;;;2.17;1.20;;;23.00;49.90;;;;;;6339532;28;20512;-64
2021/06/07 14:17:14;;;;;;;1.40;0.98;;;23.00;49.90;;;;;;6339384;28;20016;-63
2021/06/07 14:20:16;;;;;;;1.35;0.95;;;23.00;49.90;;;;;;6339610;28;20027;-66
2021/06/07 14:26:45;;;;;;;1.02;0.95;;;23.00;50.00;;;;;;6340476;28;20484;-65
2021/06/07 14:29:46;;;;;;;1.02;0.88;;;23.00;49.90;;;;;;6341459;28;20492;-66
2021/06/07 14:32:46;;;;;;;1.70;0.88;;;23.00;50.60;;;;;;6339501;28;20038;-66
2021/06/07 14:35:48;;;;;;;1.23;0.80;;;23.00;50.00;;;;;;6338269;28;20038;-66
2021/06/07 14:38:51;;;;;;;1.10;1.00;;;23.00;50.00;;;;;;6339902;28;20160;-66
2021/06/07 14:41:52;;;;;;;1.10;1.00;;;23.00;50.00;;;;;;6340029;28;20023;-65
2021/06/07 14:44:53;;;;;;;1.20;0.82;;;23.00;50.00;;;;;;6328191;28;20065;-66
2021/06/07 14:47:53;;;;;;;1.88;1.20;;;23.00;50.00;;;;;;6338783;28;20058;-65
2021/06/07 14:50:54;;;;;;;1.77;0.90;;;23.00;50.00;;;;;;6338598;28;20057;-64
2021/06/07 14:53:55;;;;;;;1.88;0.70;;;23.00;50.00;;;;;;6341722;28;20498;-64
2021/06/07 14:56:56;;;;;;;1.25;0.90;;;23.00;50.00;;;;;;6341225;28;20538;-64
2021/06/07 14:59:57;;;;;;;1.08;0.85;;;23.00;50.00;;;;;;6327104;28;20050;-67
2021/06/07 15:02:58;;;;;;;1.35;0.80;;;23.00;50.10;;;;;;6312028;28;20035;-67
2021/06/07 15:05:58;;;;;;;1.48;0.90;;;23.00;50.10;;;;;;6286827;28;20024;-66
2021/06/07 15:08:59;;;;;;;1.00;0.85;;;23.00;50.00;;;;;;6333187;28;20024;-66
2021/06/07 15:11:59;;;;;;;1.30;0.90;;;23.00;50.00;;;;;;6315943;28;20107;-66
2021/06/07 15:15:00;;;;;;;1.20;0.90;;;23.00;50.00;;;;;;6316639;28;20081;-67
2021/06/07 15:18:03;;;;;;;0.90;0.90;;;23.00;50.10;;;;;;6342457;28;20441;-67
2021/06/07 15:21:04;;;;;;;0.98;0.88;;;23.10;50.20;;;;;;6312416;28;20030;-67
2021/06/07 15:24:05;;;;;;;0.82;0.73;;;23.00;50.10;;;;;;6327434;28;20015;-67
2021/06/07 15:27:06;;;;;;;1.10;0.98;;;23.00;50.10;;;;;;6339239;28;20035;-67
2021/06/07 15:30:09;;;;;;;1.52;1.00;;;23.00;50.10;;;;;;6345666;28;20042;-67
2021/06/07 15:33:09;;;;;;;0.90;0.80;;;23.00;50.10;;;;;;6344074;28;20023;-68
2021/06/07 15:36:12;;;;;;;1.10;1.00;;;23.00;50.20;;;;;;6327647;28;20408;-71
2021/06/07 15:39:13;;;;;;;1.25;0.77;;;23.00;50.10;;;;;;6313896;28;20941;-69
2021/06/07 15:42:14;;;;;;;0.95;0.85;;;23.00;50.20;;;;;;6332976;28;20084;-68
2021/06/07 15:45:15;;;;;;;0.95;0.80;;;23.00;50.10;;;;;;6322015;28;20496;-68
2021/06/07 15:48:15;;;;;;;1.50;1.00;;;23.10;50.20;;;;;;6331776;28;20016;-68
2021/06/07 15:51:22;;;;;;;1.38;1.15;;;23.00;50.10;;;;;;6329101;28;20028;-69
2021/06/07 15:54:23;;;;;;;1.13;1.00;;;23.00;50.10;;;;;;6308414;28;20115;-68
2021/06/07 15:57:27;;;;;;;2.00;1.33;;;23.00;50.10;;;;;;6339487;27;20035;-70
2021/06/07 16:00:28;;;;;;;1.20;1.00;;;23.00;50.10;;;;;;6364619;27;20019;-68